Terminal Aerodrome Forecast
Issued by NWS Brownsville, TX

Home | Current Version | Previous Version | Text Only | Print | Product List | Glossary On
Versions: 1 2 3 4 5 6 7 8 9 10 11 12 13
000
FTUS44 KBRO 261741
TAFHRL
TAF
KHRL 261741Z 2618/2718 15010KT 6SM HZ BKN030
     FM270200 13010KT P6SM BKN015
     FM270600 14013G18KT 4SM HZ BR BKN010
     FM271400 34014G21KT P6SM BKN030=

USA.gov is the U.S. government's official web portal to all federal, state and local government web resources and services.